Time;durP1;ratioP1;P1;durP2;ratioP2;P2;SDS_P1;SDS_P2;PMS_P1;PMS_P2;Temp;Humidity;BMP_temperature;BMP_pressure;BME280_temperature;BME280_humidity;BME280_pressure;Samples;Min_cycle;Max_cycle;Signal;HPM_P1;HPM_P2
2021/07/03 00:00:50;;;;;;;3.72;2.25;;;19.70;70.30;;;;;;2423886;52;20945;-67
2021/07/03 00:03:16;;;;;;;4.30;2.30;;;19.80;70.50;;;;;;2350596;53;20925;-66
2021/07/03 00:05:42;;;;;;;3.50;2.12;;;19.70;70.50;;;;;;2351854;53;20990;-66
2021/07/03 00:08:08;;;;;;;4.50;2.17;;;19.70;70.50;;;;;;2350725;53;20959;-67
2021/07/03 00:10:35;;;;;;;3.03;1.67;;;19.70;70.50;;;;;;2344799;53;20935;-67
2021/07/03 00:13:01;;;;;;;3.37;2.05;;;19.60;70.40;;;;;;2346086;53;20958;-66
2021/07/03 00:15:27;;;;;;;7.87;2.55;;;19.60;70.50;;;;;;2345556;53;20950;-66
2021/07/03 00:17:54;;;;;;;5.03;2.70;;;19.60;70.50;;;;;;2348695;53;21006;-66
2021/07/03 00:20:22;;;;;;;3.78;2.12;;;19.60;70.60;;;;;;2350024;53;21027;-67
2021/07/03 00:22:49;;;;;;;3.83;2.58;;;19.50;70.50;;;;;;2585653;52;20959;-66
2021/07/03 00:25:15;;;;;;;4.78;2.47;;;19.50;70.50;;;;;;2352324;53;20994;-65
2021/07/03 00:27:41;;;;;;;3.95;2.20;;;19.50;70.60;;;;;;2346690;53;20996;-67
2021/07/03 00:30:10;;;;;;;4.53;2.50;;;19.40;70.50;;;;;;2342587;53;21895;-67
2021/07/03 00:32:37;;;;;;;4.70;2.25;;;19.40;70.60;;;;;;2349019;53;20963;-66
2021/07/03 00:35:05;;;;;;;3.78;2.10;;;19.40;70.70;;;;;;2346145;53;20946;-66
2021/07/03 00:37:31;;;;;;;3.85;2.35;;;19.30;70.60;;;;;;2345767;53;20950;-66
2021/07/03 00:39:58;;;;;;;5.28;2.20;;;19.30;70.70;;;;;;2583820;52;21014;-67
2021/07/03 00:42:24;;;;;;;3.17;1.95;;;19.30;70.80;;;;;;2343174;53;20958;-66
2021/07/03 00:44:50;;;;;;;3.40;1.95;;;19.30;70.90;;;;;;2347351;53;21343;-66
2021/07/03 00:47:17;;;;;;;3.67;2.10;;;19.20;70.80;;;;;;2349489;53;20926;-65
2021/07/03 00:49:46;;;;;;;4.35;2.67;;;19.20;70.80;;;;;;2341436;53;21404;-66
2021/07/03 00:52:13;;;;;;;5.20;2.47;;;19.20;70.90;;;;;;2347422;53;20922;-66
2021/07/03 00:54:40;;;;;;;4.85;2.80;;;19.20;71.10;;;;;;2452473;52;20950;-68
2021/07/03 00:57:06;;;;;;;4.40;2.60;;;19.10;71.10;;;;;;2346856;53;21041;-66
2021/07/03 00:59:39;;;;;;;4.78;2.72;;;19.10;71.20;;;;;;2346953;53;20911;-65
2021/07/03 01:02:07;;;;;;;3.90;2.58;;;19.10;71.20;;;;;;2586841;52;21046;-66
2021/07/03 01:04:34;;;;;;;4.40;2.53;;;19.10;71.20;;;;;;2345635;53;20929;-66
2021/07/03 01:07:04;;;;;;;3.83;2.40;;;19.10;71.30;;;;;;2346250;53;20994;-66
2021/07/03 01:09:30;;;;;;;4.10;2.62;;;19.00;71.10;;;;;;2351939;53;20978;-66
2021/07/03 01:11:56;;;;;;;5.28;3.30;;;19.00;71.40;;;;;;2346632;53;20939;-66
2021/07/03 01:14:25;;;;;;;6.72;3.47;;;19.00;71.60;;;;;;2346023;53;21000;-66
2021/07/03 01:16:52;;;;;;;5.00;3.00;;;19.00;71.50;;;;;;2346078;53;21286;-66
2021/07/03 01:19:18;;;;;;;4.25;2.67;;;19.00;71.60;;;;;;2585769;52;21007;-67
2021/07/03 01:21:51;;;;;;;6.57;3.10;;;18.90;71.50;;;;;;2347103;53;21719;-64
2021/07/03 01:24:22;;;;;;;6.28;2.70;;;19.00;71.40;;;;;;2346497;53;21012;-66
2021/07/03 01:26:50;;;;;;;5.10;2.90;;;18.90;71.50;;;;;;2558782;52;20931;-66
2021/07/03 01:29:17;;;;;;;6.50;2.80;;;18.90;71.50;;;;;;2346915;53;20976;-66
2021/07/03 01:31:44;;;;;;;4.37;2.92;;;18.90;71.50;;;;;;2532967;52;20974;-67
2021/07/03 01:34:10;;;;;;;5.32;3.08;;;18.80;71.50;;;;;;2347968;53;21866;-66
2021/07/03 01:36:37;;;;;;;4.78;2.78;;;18.80;71.60;;;;;;2342169;53;20909;-66
2021/07/03 01:39:07;;;;;;;4.75;2.80;;;18.80;71.60;;;;;;2554610;52;21553;-66
2021/07/03 01:41:33;;;;;;;4.45;2.58;;;18.80;71.40;;;;;;2346598;53;20971;-66
2021/07/03 01:44:02;;;;;;;3.95;2.35;;;18.80;71.50;;;;;;2409993;52;21066;-66
2021/07/03 01:46:28;;;;;;;3.78;2.42;;;18.70;71.40;;;;;;2344944;53;20954;-65
2021/07/03 01:48:58;;;;;;;4.85;2.85;;;18.70;71.50;;;;;;2394343;52;21929;-66
2021/07/03 01:51:26;;;;;;;4.65;2.37;;;18.70;71.60;;;;;;2348163;53;20922;-64
2021/07/03 01:53:55;;;;;;;4.60;2.25;;;18.60;71.50;;;;;;2342781;53;20941;-66
2021/07/03 01:56:21;;;;;;;4.40;2.40;;;18.60;71.50;;;;;;2559631;52;21118;-67
2021/07/03 01:58:50;;;;;;;4.80;2.97;;;18.60;71.70;;;;;;2349272;53;20935;-65
2021/07/03 02:01:16;;;;;;;5.37;2.78;;;18.50;72.20;;;;;;2347283;53;21835;-66
2021/07/03 02:03:43;;;;;;;4.57;2.60;;;18.50;71.70;;;;;;2347060;53;21896;-66
2021/07/03 02:06:09;;;;;;;6.28;2.60;;;18.50;71.70;;;;;;2349632;53;21816;-65
2021/07/03 02:08:38;;;;;;;4.28;2.45;;;18.50;71.70;;;;;;2343957;53;20946;-66
2021/07/03 02:11:06;;;;;;;4.53;2.45;;;18.50;71.60;;;;;;2347555;53;20985;-66
2021/07/03 02:13:33;;;;;;;4.32;2.75;;;18.50;71.70;;;;;;2353581;53;21042;-66
2021/07/03 02:16:00;;;;;;;4.57;2.62;;;18.50;71.80;;;;;;2346349;53;20983;-67
2021/07/03 02:18:27;;;;;;;5.12;3.35;;;18.40;72.40;;;;;;2345672;53;21830;-65
2021/07/03 02:20:54;;;;;;;4.30;2.30;;;18.40;72.50;;;;;;2349368;53;20954;-66
2021/07/03 02:23:20;;;;;;;3.87;2.50;;;18.40;71.80;;;;;;2346048;53;20966;-64
2021/07/03 02:25:47;;;;;;;3.80;2.30;;;18.40;71.80;;;;;;2347316;53;21073;-66
2021/07/03 02:28:13;;;;;;;4.05;2.58;;;18.30;71.70;;;;;;2349476;53;20993;-65
2021/07/03 02:30:40;;;;;;;4.22;2.55;;;18.30;71.70;;;;;;2485571;52;20969;-66
2021/07/03 02:33:07;;;;;;;4.90;2.97;;;18.30;71.80;;;;;;2327295;53;21490;-65
2021/07/03 02:35:35;;;;;;;4.65;2.80;;;18.30;71.90;;;;;;2349704;53;20970;-67
2021/07/03 02:38:01;;;;;;;3.85;2.50;;;18.20;71.70;;;;;;2345808;53;21096;-64
2021/07/03 02:40:27;;;;;;;4.25;2.42;;;18.20;71.70;;;;;;2347102;53;21486;-66
2021/07/03 02:42:53;;;;;;;4.20;2.53;;;18.20;71.80;;;;;;2584944;52;21471;-66
2021/07/03 02:45:20;;;;;;;4.43;2.45;;;18.20;71.80;;;;;;2350482;53;21783;-67
2021/07/03 02:47:46;;;;;;;6.43;2.92;;;18.10;71.80;;;;;;2350629;53;21046;-66
2021/07/03 02:50:17;;;;;;;4.32;2.80;;;18.10;71.80;;;;;;2344639;53;20942;-66
2021/07/03 02:52:43;;;;;;;4.55;2.40;;;18.10;71.70;;;;;;2347968;53;20967;-66
2021/07/03 02:55:10;;;;;;;4.18;2.83;;;18.00;71.80;;;;;;2346785;53;21134;-66
2021/07/03 02:57:36;;;;;;;4.60;2.90;;;18.00;71.90;;;;;;2584181;52;20938;-66
2021/07/03 03:00:12;;;;;;;4.28;2.70;;;18.00;71.90;;;;;;2350421;53;21611;-65
2021/07/03 03:02:39;;;;;;;4.10;2.70;;;18.00;71.90;;;;;;2351732;53;20947;-66
2021/07/03 03:05:07;;;;;;;6.68;3.25;;;17.90;72.00;;;;;;2353731;53;20986;-67
2021/07/03 03:07:36;;;;;;;3.90;2.20;;;17.90;72.00;;;;;;2454309;52;21042;-65
2021/07/03 03:10:04;;;;;;;4.47;2.70;;;17.90;72.00;;;;;;2348017;53;21031;-65
2021/07/03 03:12:30;;;;;;;3.72;2.12;;;17.80;71.90;;;;;;2344152;53;20980;-64
2021/07/03 03:14:57;;;;;;;4.28;2.80;;;17.80;71.90;;;;;;2586468;52;21026;-64
2021/07/03 03:17:23;;;;;;;4.20;2.58;;;17.80;72.00;;;;;;2348890;53;21143;-65
2021/07/03 03:19:50;;;;;;;5.15;2.95;;;17.80;72.00;;;;;;2504928;52;21018;-67
2021/07/03 03:22:17;;;;;;;4.30;2.90;;;17.70;72.00;;;;;;2349833;53;20963;-66
2021/07/03 03:24:45;;;;;;;4.80;2.83;;;17.70;72.00;;;;;;2355708;53;20962;-64
2021/07/03 03:27:13;;;;;;;4.30;2.75;;;17.70;72.00;;;;;;2352174;53;21612;-65
2021/07/03 03:29:39;;;;;;;5.62;2.67;;;17.70;72.10;;;;;;2350681;53;21038;-65
2021/07/03 03:32:06;;;;;;;4.53;2.53;;;17.70;72.10;;;;;;2343384;53;21384;-66
2021/07/03 03:34:32;;;;;;;4.30;2.58;;;17.60;72.10;;;;;;2347826;54;20939;-66
2021/07/03 03:37:01;;;;;;;3.72;2.28;;;17.60;72.20;;;;;;2350293;53;21810;-65
2021/07/03 03:39:42;;;;;;;4.40;2.58;;;17.60;72.30;;;;;;2380155;53;21819;-65
2021/07/03 03:42:08;;;;;;;3.83;2.47;;;17.60;71.80;;;;;;2345356;53;21577;-66
2021/07/03 03:44:34;;;;;;;5.15;2.62;;;17.60;72.30;;;;;;2346164;53;20987;-65
2021/07/03 03:47:01;;;;;;;5.65;2.50;;;17.50;72.30;;;;;;2353107;53;20951;-65
2021/07/03 03:49:27;;;;;;;4.32;2.62;;;17.50;72.30;;;;;;2586719;52;20958;-65
2021/07/03 03:51:53;;;;;;;3.85;2.10;;;17.50;72.30;;;;;;2351269;53;20959;-66
2021/07/03 03:54:21;;;;;;;3.87;2.33;;;17.50;72.40;;;;;;2351787;53;20970;-65
2021/07/03 03:56:48;;;;;;;4.40;2.65;;;17.50;72.40;;;;;;2346095;53;21966;-66
2021/07/03 03:59:15;;;;;;;6.10;3.20;;;17.50;72.50;;;;;;2346251;53;20947;-66
2021/07/03 04:01:42;;;;;;;5.30;3.03;;;17.50;72.60;;;;;;2350769;53;21420;-66
2021/07/03 04:04:08;;;;;;;5.15;3.10;;;17.40;72.50;;;;;;2347150;53;21122;-66
2021/07/03 04:06:35;;;;;;;4.78;2.87;;;17.40;72.50;;;;;;2345176;53;21048;-66
2021/07/03 04:09:03;;;;;;;5.00;3.00;;;17.40;72.60;;;;;;2352994;53;20938;-65
2021/07/03 04:11:29;;;;;;;4.05;2.62;;;17.40;72.70;;;;;;2347727;53;21849;-65
2021/07/03 04:13:55;;;;;;;5.87;2.67;;;17.40;72.80;;;;;;2343689;53;20993;-66
2021/07/03 04:16:22;;;;;;;4.65;2.65;;;17.40;72.80;;;;;;2347034;53;20922;-66
2021/07/03 04:18:48;;;;;;;5.20;3.25;;;17.40;72.90;;;;;;2346290;53;21108;-65
2021/07/03 04:21:14;;;;;;;5.32;3.47;;;17.40;73.00;;;;;;2346013;53;20978;-64
2021/07/03 04:23:41;;;;;;;4.85;3.10;;;17.40;73.10;;;;;;2518841;52;21019;-66
2021/07/03 04:26:13;;;;;;;4.05;2.55;;;17.40;73.10;;;;;;2585224;52;21106;-66
2021/07/03 04:28:39;;;;;;;4.97;2.95;;;17.40;73.10;;;;;;2349595;53;20989;-65
2021/07/03 04:31:05;;;;;;;4.47;2.58;;;17.40;73.50;;;;;;2584485;52;20962;-65
2021/07/03 04:33:31;;;;;;;4.78;3.05;;;17.40;73.40;;;;;;2383371;52;20940;-65
2021/07/03 04:35:58;;;;;;;4.55;2.67;;;17.40;73.50;;;;;;2345286;54;21004;-65
2021/07/03 04:38:24;;;;;;;5.10;3.10;;;17.40;73.60;;;;;;2346470;53;20981;-67
2021/07/03 04:40:51;;;;;;;5.12;3.12;;;17.50;73.80;;;;;;2347887;53;21108;-65
2021/07/03 04:43:18;;;;;;;5.15;2.90;;;17.50;73.80;;;;;;2347860;53;21022;-65
2021/07/03 04:45:44;;;;;;;4.57;2.47;;;17.50;73.90;;;;;;2588218;52;20926;-65
2021/07/03 04:48:15;;;;;;;4.45;2.87;;;17.50;74.00;;;;;;2328073;53;21865;-65
2021/07/03 04:50:43;;;;;;;6.70;2.90;;;17.60;75.00;;;;;;2432823;52;20982;-66
2021/07/03 04:53:11;;;;;;;4.60;2.60;;;17.60;74.50;;;;;;2584788;52;20967;-65
2021/07/03 04:55:37;;;;;;;4.37;2.58;;;17.60;74.60;;;;;;2344701;53;20985;-66
2021/07/03 04:58:08;;;;;;;5.55;3.42;;;17.70;74.80;;;;;;2347407;53;21015;-66
2021/07/03 05:00:35;;;;;;;4.05;2.60;;;17.70;74.90;;;;;;2348953;53;21014;-66
2021/07/03 05:03:03;;;;;;;4.30;2.95;;;17.80;75.00;;;;;;2346804;53;21014;-66
2021/07/03 05:05:29;;;;;;;4.50;2.55;;;17.80;75.10;;;;;;2326285;53;20946;-66
2021/07/03 05:07:55;;;;;;;4.30;2.75;;;17.90;75.20;;;;;;2349739;53;21482;-65
2021/07/03 05:10:21;;;;;;;4.07;2.67;;;18.00;75.40;;;;;;2346433;53;21612;-66
2021/07/03 05:12:48;;;;;;;4.15;2.60;;;18.00;75.40;;;;;;2372372;53;21006;-66
2021/07/03 05:15:14;;;;;;;3.97;2.50;;;18.10;75.50;;;;;;2345284;53;20943;-66
2021/07/03 05:17:41;;;;;;;4.05;2.40;;;18.10;75.50;;;;;;2587065;52;20954;-66
2021/07/03 05:20:08;;;;;;;4.18;2.83;;;18.20;75.60;;;;;;2352831;53;21585;-66
2021/07/03 05:22:34;;;;;;;4.25;2.80;;;18.30;75.70;;;;;;2349145;53;20927;-66
2021/07/03 05:25:01;;;;;;;4.82;2.92;;;18.30;75.70;;;;;;2355488;53;20999;-66
2021/07/03 05:27:28;;;;;;;3.75;2.60;;;18.40;75.80;;;;;;2347147;53;21070;-66
2021/07/03 05:29:54;;;;;;;5.87;3.90;;;18.50;75.90;;;;;;2351205;53;20958;-65
2021/07/03 05:32:20;;;;;;;8.20;4.65;;;18.50;75.90;;;;;;2455122;52;2746133;-65
2021/07/03 05:34:48;;;;;;;4.93;3.40;;;18.60;75.80;;;;;;2347584;53;21018;-67
2021/07/03 05:37:14;;;;;;;6.37;4.20;;;18.70;76.00;;;;;;2365213;53;20959;-67
2021/07/03 05:39:40;;;;;;;4.93;3.37;;;18.70;76.00;;;;;;2328137;53;21030;-66
2021/07/03 05:42:06;;;;;;;6.53;3.87;;;18.80;76.00;;;;;;2587648;52;21011;-66
2021/07/03 05:44:33;;;;;;;6.12;3.92;;;18.90;76.10;;;;;;2346759;53;20985;-66
2021/07/03 05:46:59;;;;;;;6.35;4.10;;;18.90;76.10;;;;;;2512018;52;21042;-67
2021/07/03 05:49:26;;;;;;;6.00;3.75;;;19.10;76.20;;;;;;2350897;53;21293;-65
2021/07/03 05:51:54;;;;;;;5.72;3.50;;;19.10;76.10;;;;;;2536617;52;20981;-66
2021/07/03 05:54:20;;;;;;;8.98;4.25;;;19.20;76.10;;;;;;2349739;53;20959;-67
2021/07/03 05:56:47;;;;;;;8.13;5.15;;;19.30;76.30;;;;;;2351493;53;21006;-66
2021/07/03 05:59:13;;;;;;;8.82;4.37;;;19.30;76.10;;;;;;2351110;53;20954;-65
2021/07/03 06:01:39;;;;;;;8.07;4.68;;;19.40;76.10;;;;;;2354248;53;20931;-66
2021/07/03 06:04:05;;;;;;;5.87;3.90;;;19.50;76.20;;;;;;2347195;53;20982;-66
2021/07/03 06:06:32;;;;;;;6.37;4.35;;;19.60;76.20;;;;;;2347008;53;20919;-65
2021/07/03 06:09:02;;;;;;;5.97;3.50;;;19.60;76.00;;;;;;2350582;53;21114;-67
2021/07/03 06:11:28;;;;;;;5.95;4.30;;;19.70;76.00;;;;;;2359141;53;21032;-65
2021/07/03 06:13:55;;;;;;;5.32;3.58;;;19.80;76.10;;;;;;2341575;53;20930;-67
2021/07/03 06:16:23;;;;;;;6.30;3.95;;;19.90;76.00;;;;;;2538015;52;20974;-65
2021/07/03 06:18:49;;;;;;;6.00;3.90;;;19.90;75.90;;;;;;2347623;53;21555;-66
2021/07/03 06:21:15;;;;;;;6.03;4.18;;;19.90;75.90;;;;;;2588692;52;20906;-66
2021/07/03 06:23:42;;;;;;;5.50;3.55;;;20.00;75.90;;;;;;2356195;53;20950;-65
2021/07/03 06:26:10;;;;;;;5.53;3.67;;;20.10;75.90;;;;;;2349925;53;21013;-67
2021/07/03 06:28:36;;;;;;;6.43;3.67;;;20.20;76.00;;;;;;2349256;53;20970;-66
2021/07/03 06:31:02;;;;;;;4.62;2.92;;;20.20;76.10;;;;;;2352387;53;20966;-66
2021/07/03 06:33:29;;;;;;;4.60;3.20;;;20.30;76.20;;;;;;2345220;53;20934;-65
2021/07/03 06:35:55;;;;;;;5.10;3.62;;;20.40;76.30;;;;;;2348930;53;20938;-66
2021/07/03 06:38:21;;;;;;;4.82;3.37;;;20.50;76.30;;;;;;2356070;53;21013;-66
2021/07/03 06:40:47;;;;;;;7.35;3.80;;;20.60;76.30;;;;;;2348482;53;20970;-66
2021/07/03 06:43:17;;;;;;;5.43;3.45;;;20.60;76.20;;;;;;2348219;53;21003;-73
2021/07/03 06:45:44;;;;;;;4.95;3.53;;;20.80;75.80;;;;;;2352551;53;20946;-68
2021/07/03 06:48:12;;;;;;;5.47;3.70;;;20.80;76.10;;;;;;2355218;53;21007;-67
2021/07/03 06:50:38;;;;;;;6.47;3.67;;;20.90;76.00;;;;;;2337134;53;20978;-71
2021/07/03 06:53:05;;;;;;;5.07;3.25;;;21.00;76.10;;;;;;2355685;53;20982;-72
2021/07/03 06:55:31;;;;;;;5.68;3.60;;;21.00;75.90;;;;;;2347825;53;20994;-68
2021/07/03 06:57:58;;;;;;;4.60;3.33;;;21.20;76.00;;;;;;2331261;53;20978;-69
2021/07/03 07:00:25;;;;;;;6.12;3.67;;;21.20;75.80;;;;;;2522793;52;21473;-72
2021/07/03 07:02:51;;;;;;;6.97;3.95;;;21.30;76.60;;;;;;2347706;53;20957;-71
2021/07/03 07:05:18;;;;;;;6.12;3.80;;;21.30;75.90;;;;;;2587484;52;21087;-67
2021/07/03 07:07:45;;;;;;;6.22;3.58;;;21.40;76.10;;;;;;2351306;53;21078;-68
2021/07/03 07:10:11;;;;;;;6.00;4.12;;;21.50;76.30;;;;;;2351279;53;20946;-68
2021/07/03 07:16:17;;;;;;;5.37;3.58;;;21.70;75.40;;;;;;2356967;53;21535;-68
2021/07/03 07:18:46;;;;;;;4.72;3.10;;;21.80;76.70;;;;;;2342841;53;20943;-70
2021/07/03 07:21:14;;;;;;;5.60;3.67;;;21.90;76.60;;;;;;2348874;53;20962;-72
2021/07/03 07:23:41;;;;;;;9.00;4.30;;;22.00;76.20;;;;;;2350233;53;20958;-68
2021/07/03 07:26:08;;;;;;;5.57;3.85;;;22.10;76.40;;;;;;2348268;53;20950;-68
2021/07/03 07:28:34;;;;;;;5.25;3.72;;;22.20;76.40;;;;;;2347501;53;20923;-68
2021/07/03 07:31:01;;;;;;;5.15;3.85;;;22.30;76.40;;;;;;2589310;52;20930;-70
2021/07/03 07:33:47;;;;;;;5.93;4.05;;;22.40;76.60;;;;;;2349968;53;20973;-67
2021/07/03 07:36:16;;;;;;;5.78;4.03;;;22.60;75.20;;;;;;2589933;52;20993;-65
2021/07/03 07:38:43;;;;;;;5.97;4.07;;;22.70;76.60;;;;;;2347453;53;20912;-68
2021/07/03 07:41:09;;;;;;;6.32;3.90;;;22.80;76.40;;;;;;2350257;53;21756;-69
2021/07/03 07:43:36;;;;;;;4.68;3.40;;;22.90;77.20;;;;;;2353168;53;21058;-67
2021/07/03 07:46:03;;;;;;;5.55;3.92;;;23.00;76.30;;;;;;2352565;53;20963;-66
2021/07/03 07:48:33;;;;;;;4.87;3.42;;;23.10;76.10;;;;;;2348513;53;21042;-67
2021/07/03 07:51:01;;;;;;;5.60;3.90;;;23.20;76.00;;;;;;2347759;53;20933;-67
2021/07/03 07:53:31;;;;;;;6.43;4.00;;;23.30;75.90;;;;;;2345126;53;21189;-68
2021/07/03 07:56:00;;;;;;;6.30;3.53;;;23.40;75.10;;;;;;2349466;53;22101;-66
2021/07/03 07:58:32;;;;;;;5.32;3.42;;;23.50;75.50;;;;;;2331084;54;21552;-66
2021/07/03 08:00:58;;;;;;;5.68;3.62;;;23.50;74.60;;;;;;2348649;53;20961;-66
2021/07/03 08:03:25;;;;;;;4.62;3.12;;;23.60;75.20;;;;;;2352386;53;21101;-68
2021/07/03 08:05:51;;;;;;;4.68;2.60;;;23.60;75.20;;;;;;2346183;53;20998;-66
2021/07/03 08:08:18;;;;;;;5.47;3.67;;;23.80;75.70;;;;;;2346714;53;20982;-66
2021/07/03 08:10:44;;;;;;;5.25;3.55;;;23.80;75.40;;;;;;2345986;53;20966;-66
2021/07/03 08:13:10;;;;;;;5.65;3.28;;;23.90;75.30;;;;;;2450749;52;21008;-66
2021/07/03 08:15:37;;;;;;;5.80;3.55;;;24.00;75.20;;;;;;2355235;53;21014;-66
2021/07/03 08:18:04;;;;;;;4.87;3.60;;;24.10;75.00;;;;;;2347201;53;20919;-67
2021/07/03 08:20:34;;;;;;;4.72;3.53;;;24.20;74.90;;;;;;2346916;53;21818;-66
2021/07/03 08:23:00;;;;;;;4.43;2.87;;;24.30;75.20;;;;;;2348121;53;21029;-67
2021/07/03 08:25:27;;;;;;;5.82;3.50;;;24.30;75.10;;;;;;2350433;53;20990;-67
2021/07/03 08:27:53;;;;;;;5.25;3.58;;;24.40;74.80;;;;;;2585498;52;20961;-66
2021/07/03 08:30:20;;;;;;;5.28;3.53;;;24.50;74.50;;;;;;2345515;53;21581;-66
2021/07/03 08:32:46;;;;;;;5.68;3.50;;;24.50;74.40;;;;;;2347160;53;20963;-66
2021/07/03 08:35:13;;;;;;;8.05;3.40;;;24.60;74.70;;;;;;2558278;52;21022;-65
2021/07/03 08:37:39;;;;;;;5.47;3.50;;;24.70;74.80;;;;;;2347269;53;21892;-69
2021/07/03 08:40:06;;;;;;;5.00;3.55;;;24.80;74.70;;;;;;2348806;53;20977;-66
2021/07/03 08:42:35;;;;;;;4.65;3.62;;;24.90;75.00;;;;;;2330777;53;21299;-66
2021/07/03 08:45:01;;;;;;;5.20;3.30;;;25.00;74.10;;;;;;2347119;53;20997;-66
2021/07/03 08:47:28;;;;;;;6.20;4.18;;;25.00;73.90;;;;;;2347994;53;20970;-67
2021/07/03 08:50:00;;;;;;;6.28;3.70;;;25.10;73.60;;;;;;2585462;52;21009;-67
2021/07/03 08:52:26;;;;;;;6.07;3.65;;;25.10;72.40;;;;;;2349635;53;20982;-67
2021/07/03 08:55:10;;;;;;;6.32;3.97;;;25.20;73.10;;;;;;2585687;52;20948;-66
2021/07/03 08:57:45;;;;;;;5.10;2.90;;;25.20;72.00;;;;;;2347317;53;20975;-68
2021/07/03 09:00:11;;;;;;;5.45;3.85;;;25.30;72.30;;;;;;2349413;53;21866;-67
2021/07/03 09:02:44;;;;;;;5.70;3.97;;;25.30;72.70;;;;;;2342734;53;21530;-69
2021/07/03 09:06:31;;;;;;;;;;;25.40;72.50;;;;;;2332041;53;20935;-68
2021/07/03 09:08:57;;;;;;;4.90;2.90;;;25.40;71.10;;;;;;2396134;52;20085;-68
2021/07/03 09:11:23;;;;;;;5.32;3.62;;;25.50;73.30;;;;;;2344404;53;22065;-68
2021/07/03 09:14:00;;;;;;;5.65;3.85;;;25.60;72.90;;;;;;2349601;53;20942;-68
2021/07/03 09:16:30;;;;;;;4.57;3.37;;;25.70;71.70;;;;;;2350354;53;20986;-71
2021/07/03 09:18:58;;;;;;;4.87;3.25;;;25.70;72.40;;;;;;2581146;52;21036;-70
2021/07/03 09:21:24;;;;;;;4.43;3.08;;;25.80;72.90;;;;;;2326351;53;135744;-81
2021/07/03 09:23:51;;;;;;;3.92;2.62;;;25.80;72.80;;;;;;2513486;54;20991;-82
2021/07/03 09:26:18;;;;;;;4.57;3.30;;;25.90;72.70;;;;;;2512320;54;21908;-83
2021/07/03 09:28:45;;;;;;;4.57;3.30;;;26.00;72.90;;;;;;2291300;55;20989;-82
2021/07/03 09:31:12;;;;;;;5.50;3.58;;;26.20;72.90;;;;;;2493137;54;21055;-80
2021/07/03 09:33:40;;;;;;;5.32;3.40;;;26.10;72.80;;;;;;2496713;54;21012;-81
2021/07/03 09:36:11;;;;;;;5.22;3.53;;;26.30;72.50;;;;;;2491441;54;20980;-81
2021/07/03 09:38:42;;;;;;;5.70;3.30;;;26.30;71.90;;;;;;2282201;54;21079;-82
2021/07/03 09:41:13;;;;;;;4.90;3.00;;;26.40;72.30;;;;;;2474268;55;21048;-81
2021/07/03 09:43:59;;;;;;;4.93;3.20;;;26.40;72.20;;;;;;2298391;55;21443;-81
2021/07/03 09:46:31;;;;;;;4.72;3.28;;;26.60;70.50;;;;;;2484494;54;21017;-83
2021/07/03 09:49:11;;;;;;;5.68;3.30;;;26.60;71.00;;;;;;2260553;55;20982;-83
2021/07/03 09:51:46;;;;;;;4.55;3.22;;;26.70;71.00;;;;;;2481844;55;20952;-81
2021/07/03 09:54:14;;;;;;;4.85;3.33;;;26.80;70.60;;;;;;2262003;55;21001;-82
2021/07/03 09:56:40;;;;;;;5.78;3.35;;;26.80;70.90;;;;;;2476827;55;21038;-85
2021/07/03 09:59:07;;;;;;;4.30;2.87;;;26.90;70.90;;;;;;2285539;55;20952;-85
2021/07/03 10:01:39;;;;;;;4.30;3.20;;;27.00;70.80;;;;;;2265829;55;21639;-83
2021/07/03 10:04:06;;;;;;;5.50;3.05;;;27.00;70.50;;;;;;2276911;55;21383;-82
2021/07/03 10:07:01;;;;;;;4.57;3.20;;;27.10;70.20;;;;;;2280893;55;20965;-85
2021/07/03 10:09:35;;;;;;;4.25;2.97;;;27.20;67.40;;;;;;2508448;54;20944;-83
2021/07/03 10:12:08;;;;;;;5.95;2.83;;;27.20;68.50;;;;;;2506133;54;20965;-81
2021/07/03 10:14:39;;;;;;;4.60;3.20;;;27.20;68.50;;;;;;2294353;55;20979;-82
2021/07/03 10:17:06;;;;;;;6.15;3.25;;;27.30;69.30;;;;;;2515851;54;20964;-83
2021/07/03 10:19:34;;;;;;;4.65;2.90;;;27.30;69.50;;;;;;2519396;54;20965;-83
2021/07/03 10:22:29;;;;;;;4.45;3.10;;;27.30;69.20;;;;;;2293091;55;21041;-83
2021/07/03 10:25:10;;;;;;;3.95;2.83;;;27.40;67.10;;;;;;2269418;55;20925;-83
2021/07/03 10:27:36;;;;;;;3.97;2.95;;;27.40;69.00;;;;;;2294784;55;21010;-83
2021/07/03 10:30:04;;;;;;;4.45;3.10;;;27.50;68.80;;;;;;2294649;55;20968;-83
2021/07/03 10:32:35;;;;;;;4.87;3.40;;;27.60;68.20;;;;;;2517224;55;21012;-82
2021/07/03 10:35:12;;;;;;;4.95;2.97;;;27.60;67.40;;;;;;2273156;55;21009;-83
2021/07/03 10:37:38;;;;;;;4.05;2.85;;;27.60;67.30;;;;;;2278125;55;21278;-82
2021/07/03 10:40:24;;;;;;;4.05;2.92;;;27.70;68.50;;;;;;2507576;54;21065;-82
2021/07/03 10:42:51;;;;;;;4.20;2.95;;;27.80;66.20;;;;;;2255709;56;21927;-82
2021/07/03 10:45:24;;;;;;;4.70;2.67;;;27.80;68.30;;;;;;2273086;54;21984;-83
2021/07/03 10:47:51;;;;;;;3.72;2.75;;;27.90;68.10;;;;;;2273335;55;20974;-83
2021/07/03 10:50:30;;;;;;;4.65;2.75;;;27.90;68.00;;;;;;2275680;54;21000;-83
2021/07/03 10:52:57;;;;;;;4.37;3.03;;;27.90;67.00;;;;;;2491378;54;21747;-83
2021/07/03 10:55:37;;;;;;;4.65;3.17;;;28.00;67.50;;;;;;2492243;55;20953;-82
2021/07/03 10:58:19;;;;;;;4.00;2.60;;;28.00;66.70;;;;;;2274701;55;21016;-86
2021/07/03 11:00:49;;;;;;;4.45;2.85;;;28.10;66.40;;;;;;2255204;56;20963;-86
2021/07/03 11:03:20;;;;;;;3.80;2.40;;;28.10;67.80;;;;;;2498301;55;20950;-86
2021/07/03 11:05:46;;;;;;;4.43;2.40;;;28.20;68.20;;;;;;2506360;54;20980;-86
2021/07/03 11:08:22;;;;;;;4.05;2.33;;;28.20;67.50;;;;;;2481773;54;21153;-87
2021/07/03 11:10:49;;;;;;;2.90;1.85;;;28.20;67.50;;;;;;2300331;55;20989;-85
2021/07/03 11:13:23;;;;;;;3.25;2.30;;;28.30;67.20;;;;;;2525471;54;21049;-84
2021/07/03 11:15:49;;;;;;;3.17;2.12;;;28.40;65.70;;;;;;2524268;54;21086;-87
2021/07/03 11:18:15;;;;;;;3.78;2.40;;;28.40;66.70;;;;;;2527242;53;21436;-88
2021/07/03 11:20:42;;;;;;;3.10;2.00;;;28.50;66.40;;;;;;2288568;55;21061;-88
2021/07/03 11:23:09;;;;;;;3.12;1.98;;;28.50;65.90;;;;;;2298773;55;20989;-87
2021/07/03 11:25:38;;;;;;;3.62;2.33;;;28.50;66.10;;;;;;2514605;53;21022;-87
2021/07/03 11:28:11;;;;;;;2.95;1.92;;;28.60;65.70;;;;;;2492789;54;21023;-85
2021/07/03 11:30:41;;;;;;;3.45;1.85;;;28.60;64.80;;;;;;2493159;55;21076;-88
2021/07/03 11:33:08;;;;;;;4.55;2.00;;;28.70;65.30;;;;;;2269129;55;21569;-84
2021/07/03 11:35:35;;;;;;;4.80;2.00;;;28.70;65.20;;;;;;2497938;55;21518;-83
2021/07/03 11:38:01;;;;;;;3.20;1.80;;;28.80;65.20;;;;;;2498030;54;20964;-85
2021/07/03 11:40:29;;;;;;;2.87;1.77;;;28.80;64.90;;;;;;2496275;55;20980;-84
2021/07/03 11:42:57;;;;;;;3.40;1.80;;;28.80;64.40;;;;;;2495188;55;20932;-85
2021/07/03 11:45:25;;;;;;;4.12;2.15;;;28.90;64.20;;;;;;2287437;55;21011;-85
2021/07/03 11:48:35;;;;;;;2.78;1.58;;;28.90;64.10;;;;;;2281094;55;21917;-82
2021/07/03 11:51:02;;;;;;;3.00;1.62;;;29.00;61.70;;;;;;2267033;59;21041;-83
2021/07/03 11:53:31;;;;;;;3.30;1.80;;;29.10;64.30;;;;;;2266304;59;21724;-84
2021/07/03 11:56:01;;;;;;;3.05;1.62;;;29.10;63.60;;;;;;2482410;55;20974;-83
2021/07/03 11:58:34;;;;;;;2.97;1.65;;;29.10;63.80;;;;;;2270914;55;21856;-85
2021/07/03 12:01:05;;;;;;;2.85;1.90;;;29.20;62.50;;;;;;2496705;55;20924;-84
2021/07/03 12:03:35;;;;;;;3.05;1.77;;;29.20;62.30;;;;;;2283895;55;20951;-85
2021/07/03 12:06:05;;;;;;;3.00;1.80;;;29.30;63.20;;;;;;2493551;55;21002;-85
2021/07/03 12:08:36;;;;;;;3.20;1.80;;;29.20;62.60;;;;;;2495036;54;21852;-85
2021/07/03 12:11:12;;;;;;;4.35;1.98;;;29.30;61.90;;;;;;2495709;55;20996;-83
2021/07/03 12:13:49;;;;;;;3.28;1.90;;;29.30;60.50;;;;;;2495980;55;20991;-83
2021/07/03 12:16:19;;;;;;;3.83;1.75;;;29.30;60.30;;;;;;2273661;55;20930;-85
2021/07/03 12:18:49;;;;;;;3.10;1.77;;;29.40;61.60;;;;;;2275373;55;20933;-84
2021/07/03 12:21:48;;;;;;;3.05;1.75;;;29.40;62.10;;;;;;2274677;55;20953;-84
2021/07/03 12:24:15;;;;;;;2.75;1.55;;;29.40;59.30;;;;;;2496590;55;21798;-85
2021/07/03 12:26:46;;;;;;;3.15;1.80;;;29.50;62.50;;;;;;2276691;55;21068;-84
2021/07/03 12:29:14;;;;;;;3.20;1.83;;;29.50;61.00;;;;;;2496761;55;20934;-85
2021/07/03 12:31:44;;;;;;;2.70;1.40;;;29.60;62.80;;;;;;2500502;54;20971;-87
2021/07/03 12:34:27;;;;;;;2.78;1.58;;;29.60;61.20;;;;;;2283462;55;21357;-88
2021/07/03 12:37:01;;;;;;;2.65;1.40;;;29.60;60.90;;;;;;2482709;55;21427;-85
2021/07/03 12:39:28;;;;;;;3.83;1.60;;;29.70;60.20;;;;;;2500268;54;21904;-84
2021/07/03 12:42:29;;;;;;;3.33;1.70;;;29.70;61.90;;;;;;2495793;54;21026;-85
2021/07/03 12:45:03;;;;;;;2.80;1.65;;;29.80;59.00;;;;;;2272236;55;20988;-85
2021/07/03 12:47:29;;;;;;;3.87;1.70;;;29.80;60.20;;;;;;2496810;55;21827;-85
2021/07/03 12:49:59;;;;;;;2.87;1.60;;;29.90;61.40;;;;;;2488741;54;22342;-83
2021/07/03 12:52:41;;;;;;;2.53;1.20;;;29.90;61.00;;;;;;2487498;54;20922;-87
2021/07/03 12:55:11;;;;;;;2.50;1.40;;;30.00;59.20;;;;;;2293488;55;20964;-84
2021/07/03 12:57:45;;;;;;;3.20;1.37;;;30.00;61.10;;;;;;2297272;55;20913;-84
2021/07/03 13:00:12;;;;;;;3.03;1.65;;;30.10;60.40;;;;;;2489046;55;21909;-85